• Join FlightAware (Why Join?)
  • Login
  • US Flag 
11:12PM EDT


 

Airport Tracker/Info


-or-


 

Live Flight TrackerFlight Track Log ✈ GJS3707 ✈ 05-Jun-2013 ✈ KBOI - KORD

Flight Track Log - Related Links

Times and Time Zones

All times are in EDT time to prevent confusion due to time zone crossing. See the GJS3707 flight status page for this flight to view local times or setup timezone preferences in your user account.

Time Position Orientation Groundspeed Altitude Reporting Facility
EDT Latitude Longitude Course Direction KTS MPH feet Rate Location/Type
03:18PM 43.5247 -116.0953 112° Southeast 215 247 6,300  Level Salt Lake Center
03:19PM 43.5047 -116.0006 106° East 252 290 8,600 2,340 Climbing Salt Lake Center
03:20PM 43.5286 -115.9044 71° East 255 293 11,200 2,220 Climbing Salt Lake Center
03:21PM 43.6772 -115.3844 83° East  Level FlightAware Approximate
03:21PM 43.5475 -115.7989 76° East 270 311 13,300  Level Salt Lake Center
03:22PM 43.7017 -115.2181 81° East  Level FlightAware Approximate
03:22PM 43.5661 -115.6872 77° East 283 326 15,300  Level Salt Lake Center
03:23PM 43.7207 -115.0480 81° East  Level FlightAware Approximate
03:23PM 43.5861 -115.5675 77° East 329 379 16,200  Level Salt Lake Center
03:24PM 43.6100 -115.4231 77° East 365 420 17,500 1,260 Climbing Salt Lake Center
03:25PM 43.6361 -115.2664 77° East 398 458 18,900 1,320 Climbing Salt Lake Center
03:27PM 43.6608 -115.1089 78° East 413 475 20,300 1,380 Climbing Salt Lake Center
03:28PM 43.6767 -114.9264 83° East 430 495 21,800 1,380 Climbing Salt Lake Center
03:29PM 43.6889 -114.7667 84° East 436 502 23,200 1,200 Climbing Salt Lake Center
03:30PM 43.7014 -114.6044 84° East 444 511 24,300 1,260 Climbing Salt Lake Center
03:31PM 43.7156 -114.4133 84° East 449 517 25,900 1,320 Climbing Salt Lake Center
03:32PM 43.7269 -114.2494 84° East 449 517 27,100 1,140 Climbing Salt Lake Center
03:33PM 43.7397 -114.0544 85° East 455 524 28,300 1,200 Climbing Salt Lake Center
03:34PM 43.7514 -113.8883 84° East 457 526 29,600 1,200 Climbing Salt Lake Center
03:35PM 43.7644 -113.6947 85° East 455 524 30,800 1,020 Climbing Salt Lake Center
03:36PM 43.7753 -113.5278 85° East 456 525 31,800 960 Climbing Salt Lake Center
03:37PM 43.7853 -113.3314 86° East 457 526 32,800 900 Climbing Salt Lake Center
03:38PM 43.7950 -113.1636 85° East 458 527 33,700 900 Climbing Salt Lake Center
03:39PM 43.8067 -112.9692 85° East 456 525 34,700 600 Climbing Salt Lake Center
03:40PM 43.8169 -112.8008 85° East 459 528 35,000 120 Climbing Salt Lake Center
03:41PM 43.8281 -112.5969 86° East 475 547 35,000  Level Salt Lake Center
03:42PM 43.8375 -112.4178 86° East 487 560 35,000  Level Salt Lake Center
03:43PM 43.8494 -112.2067 85° East 494 568 35,000  Level Salt Lake Center
03:44PM 43.8578 -112.0242 86° East 497 572 35,000  Level Salt Lake Center
03:45PM 43.8692 -111.8144 86° East 495 570 35,000  Level Salt Lake Center
03:46PM 43.8775 -111.6328 86° East 497 572 35,000  Level Salt Lake Center
03:47PM 43.8867 -111.4206 86° East 499 574 35,000  Level Salt Lake Center
03:48PM 43.8950 -111.2403 86° East 495 570 35,000  Level Salt Lake Center
03:49PM 43.9044 -111.0292 86° East 495 570 35,000  Level Salt Lake Center
03:50PM 43.9125 -110.8456 86° East 500 575 35,000  Level Salt Lake Center
03:51PM 43.9189 -110.6633 87° East 498 573 35,000  Level Salt Lake Center
03:52PM 43.9264 -110.4503 87° East 498 573 35,000  Level Salt Lake Center
03:53PM 43.9333 -110.2692 87° East 495 570 35,000  Level Salt Lake Center
03:54PM 43.9403 -110.0556 87° East 498 573 35,000  Level Salt Lake Center
03:55PM 43.9458 -109.8728 88° East 496 571 35,000  Level Salt Lake Center
03:56PM 43.9514 -109.6578 88° East 500 575 35,000  Level Salt Lake Center
03:57PM 43.9581 -109.4750 87° East 499 574 35,000  Level Salt Lake Center
03:58PM 43.9622 -109.2703 88° East 496 571 35,000  Level Salt Lake Center
04:00PM 43.9675 -109.0867 88° East 498 573 35,000  Level Salt Lake Center
04:01PM 43.9717 -108.8714 88° East 501 577 35,000  Level Salt Lake Center
04:02PM 43.9756 -108.6878 88° East 499 574 35,000  Level Salt Lake Center
04:03PM 43.9797 -108.4744 88° East 496 571 35,000  Level Salt Lake Center
04:04PM 43.9828 -108.2908 89° East 499 574 35,000  Level Salt Lake Center
04:05PM 43.9867 -108.0761 88° East 499 574 35,000  Level Salt Lake Center
04:06PM 43.9886 -107.8917 89° East 501 577 35,000  Level Salt Lake Center
04:07PM 43.9908 -107.7053 89° East 505 581 35,000  Level Salt Lake Center
04:08PM 43.9917 -107.4944 90° East 495 570 35,000  Level Salt Lake Center
04:09PM 43.9953 -107.3086 88° East 503 579 35,000  Level Salt Lake Center
04:10PM 43.9967 -107.0903 89° East 507 583 35,000  Level Salt Lake Center
04:10PM 43.9981 -107.0283 88° East 506 582 35,000  Level Denver Center
04:11PM 43.9986 -106.8392 90° East 503 579 35,000  Level Denver Center
04:12PM 43.9994 -106.6892 90° East 503 579 35,000  Level Salt Lake Center
04:12PM 44.0000 -106.6217 89° East 504 580 35,000  Level Denver Center
04:13PM 44.0003 -106.4350 90° East 506 582 35,000  Level Denver Center
04:14PM 44.0008 -106.2842 90° East 508 585 35,000  Level Salt Lake Center
04:15PM 44.0050 -106.0886 88° East 512 589 35,000  Level Salt Lake Center
04:15PM 44.0053 -106.0264 90° East 511 588 35,000  Level Denver Center
04:16PM 44.0042 -105.8094 90° East 506 582 35,000  Level Denver Center
04:17PM 44.0047 -105.6222 90° East 506 582 35,000  Level Denver Center
04:18PM 44.0047 -105.4047 90° East 505 581 35,000  Level Denver Center
04:19PM 44.0042 -105.2172 90° East 506 582 35,000  Level Denver Center
04:20PM 44.0036 -104.9972 90° East 508 585 35,000  Level Denver Center
04:22PM 44.0028 -104.8106 90° East 505 581 35,000  Level Denver Center
04:23PM 44.0011 -104.6242 91° East 503 579 35,000  Level Denver Center
04:24PM 43.9994 -104.4044 91° East 508 585 35,000  Level Denver Center
04:25PM 43.9964 -104.2172 91° East 506 582 35,000  Level Denver Center
04:26PM 43.9939 -103.9989 91° East 507 583 35,000  Level Denver Center
04:27PM 43.9908 -103.8122 91° East 505 581 35,000  Level Denver Center
04:28PM 43.9881 -103.5931 91° East 506 582 35,000  Level Denver Center
04:29PM 43.9847 -103.4058 91° East 506 582 35,000  Level Denver Center
04:30PM 43.9825 -103.1928 91° East 497 572 35,000  Level Denver Center
04:31PM 43.9764 -102.9758 92° East 501 577 35,000  Level Denver Center
04:32PM 43.9717 -102.7825 92° East 499 574 35,000  Level Denver Center
04:33PM 43.9639 -102.5894 93° East 500 575 35,000  Level Denver Center
04:34PM 43.9558 -102.3594 93° East 500 575 35,000  Level Denver Center
04:35PM 43.9478 -102.1667 93° East 501 577 35,000  Level Denver Center
04:36PM 43.9406 -101.9753 93° East 500 575 35,000  Level Denver Center
04:37PM 43.9333 -101.7839 93° East 499 574 35,000  Level Denver Center
04:38PM 43.9300 -101.5964 91° East 497 572 35,000  Level Minneapolis Center
04:39PM 43.9225 -101.4058 93° East 497 572 35,000  Level Minneapolis Center
04:40PM 43.9153 -101.1833 93° East 491 565 35,000  Level Denver Center
04:41PM 43.9072 -100.9942 93° East 494 568 35,000  Level Denver Center
04:42PM 43.9006 -100.8094 93° East 489 563 35,000  Level Minneapolis Center
04:43PM 43.8914 -100.6208 94° East 491 565 35,000  Level Minneapolis Center
04:44PM 43.8825 -100.4311 94° East 494 568 35,000  Level Minneapolis Center
04:45PM 43.8731 -100.2414 94° East 496 571 35,000  Level Minneapolis Center
04:47PM 43.8619 -100.0131 94° East 496 571 35,000  Level Minneapolis Center
04:48PM 43.8522 -99.8231 94° East 497 572 35,000  Level Minneapolis Center
04:49PM 43.8411 -99.6347 95° East 496 571 35,000  Level Minneapolis Center
04:50PM 43.8314 -99.4444 94° East 496 571 35,000  Level Minneapolis Center
04:51PM 43.8211 -99.2519 94° East 502 578 35,000  Level Minneapolis Center
04:52PM 43.8092 -99.0600 95° East 502 578 35,000  Level Minneapolis Center
04:53PM 43.7953 -98.8281 95° East 506 582 35,000  Level Minneapolis Center
04:54PM 43.7844 -98.6467 95° East 505 581 35,000  Level Minneapolis Center
04:55PM 43.7711 -98.4528 95° East 507 583 35,000  Level Minneapolis Center
04:56PM 43.7583 -98.2586 95° East 508 585 35,000  Level Minneapolis Center
04:57PM 43.7433 -98.0267 95° East 508 585 35,000  Level Minneapolis Center
04:58PM 43.7289 -97.8325 96° East 509 586 35,000  Level Minneapolis Center
04:59PM 43.7156 -97.6364 95° East 514 592 35,000  Level Minneapolis Center
05:00PM 43.7014 -97.4422 96° East 511 588 35,000  Level Minneapolis Center
05:01PM 43.6836 -97.2069 96° East 516 594 35,000  Level Minneapolis Center
05:02PM 43.6683 -97.0117 96° East 516 594 35,000  Level Minneapolis Center
05:03PM 43.6525 -96.8175 96° East 514 592 35,000  Level Minneapolis Center
05:04PM 43.6272 -96.6253 100° East 514 592 35,000  Level Minneapolis Center
05:05PM 43.5992 -96.4333 101° East 515 593 35,000  Level Minneapolis Center
05:06PM 43.5644 -96.2019 102° East 518 596 35,000  Level Minneapolis Center
05:07PM 43.5361 -96.0092 101° East 517 595 35,000  Level Minneapolis Center
05:08PM 43.5069 -95.8181 102° East 515 593 35,000  Level Minneapolis Center
05:09PM 43.4767 -95.6258 102° East 517 595 35,000  Level Minneapolis Center
05:10PM 43.4469 -95.4339 102° East 517 595 35,000  Level Minneapolis Center
05:11PM 43.4108 -95.2017 102° East 519 597 35,000  Level Minneapolis Center
05:12PM 43.3794 -95.0069 102° East 523 602 35,000  Level Minneapolis Center
05:13PM 43.3478 -94.8139 103° East 523 602 35,000  Level Minneapolis Center
05:14PM 43.3164 -94.6214 103° East 520 598 35,000  Level Minneapolis Center
05:16PM 43.2839 -94.4267 103° East 523 602 35,000  Level Minneapolis Center
05:17PM 43.2492 -94.2244 103° East 521 600 35,000  Level Minneapolis Center
05:18PM 43.2172 -94.0278 103° East 529 609 35,000  Level Minneapolis Center
05:19PM 43.1775 -93.7953 103° East 528 608 35,000  Level Minneapolis Center
05:20PM 43.1431 -93.6031 104° East 526 605 35,000  Level Minneapolis Center
05:21PM 43.1100 -93.4106 103° East 524 603 35,000  Level Minneapolis Center
05:22PM 43.0856 -93.2136 100° East 526 605 35,000  Level Minneapolis Center
05:23PM 43.0744 -93.0094 94° East 538 619 35,000  Level Minneapolis Center
05:24PM 43.0572 -92.7689 96° East 535 616 35,000 -120 Level Minneapolis Center
05:25PM 43.0439 -92.5653 95° East 539 620 34,800 -420 Descending Minneapolis Center
05:25PM 43.0389 -92.5256 100° East 538 619 34,500 -1,080 Descending Chicago Center
05:26PM 43.0278 -92.3642 95° East 537 618 33,700 -1,020 Descending Minneapolis Center
05:26PM 43.0231 -92.3236 99° East 538 619 33,500 -960 Descending Chicago Center
05:27PM 43.0089 -92.1231 95° East 535 616 32,500 -1,080 Descending Chicago Center
05:28PM 42.9925 -91.8847 95° East 528 608 31,300 -720 Descending Chicago Center
05:29PM 42.9783 -91.6867 96° East 521 600 31,000 -180 Descending Chicago Center
05:30PM 42.9694 -91.5656 96° East 523 602 31,000  Level Minneapolis Center
05:31PM 42.9481 -91.3261 97° East 524 603 31,000  Level Minneapolis Center
05:31PM 42.9458 -91.2872 94° East 525 604 31,000 -240 Level Chicago Center
05:32PM 42.9294 -91.0881 96° East 528 608 30,700 -720 Descending Chicago Center
05:33PM 42.9142 -90.8950 96° East 517 595 29,600 -1,080 Descending Chicago Center
05:34PM 42.8969 -90.7194 98° East 462 532 28,500 -1,200 Descending Chicago Center
05:35PM 42.8797 -90.5183 97° East 450 518 27,200 -1,200 Descending Chicago Center
05:36PM 42.8656 -90.3533 97° East 444 511 26,100 -1,020 Descending Chicago Center
05:38PM 42.8486 -90.1869 98° East 445 512 25,100 -960 Descending Chicago Center
05:39PM 42.8208 -90.0278 103° East 438 504 24,100 -540 Descending Chicago Center
05:40PM 42.7794 -89.8742 110° East 414 476 24,000 -60 Descending Chicago Center
05:41PM 42.7311 -89.7053 111° Southeast 413 475 24,000 -540 Level Chicago Center
05:42PM 42.6886 -89.5581 111° Southeast 417 480 22,900 -2,040 Descending Chicago Center
05:43PM 42.6478 -89.4178 112° Southeast 404 465 19,800 -2,820 Descending Chicago Center
05:44PM 42.6092 -89.2817 111° Southeast 391 450 17,100 -2,580 Descending Chicago Center
05:45PM 42.5653 -89.1350 112° Southeast 364 419 14,500 -1,500 Descending Chicago Center
05:46PM 42.5572 -89.0153 95° East 336 387 14,000 -780 Descending Chicago Center
05:47PM 42.5828 -88.8919 74° East 339 390 13,000 -1,020 Descending Chicago Center
05:48PM 42.5706 -88.7725 98° East 334 384 12,000 -1,020 Descending Chicago Center
05:49PM 42.5117 -88.6908 134° Southeast 307 353 10,900 -1,080 Descending Chicago Center
05:50PM 42.4408 -88.5944 135° Southeast 308 354 9,800 -900 Descending Chicago Center
05:51PM 42.3856 -88.5150 133° Southeast 296 341 9,100 -420 Descending Chicago Center
05:52PM 42.3244 -88.4494 142° Southeast 300 345 9,000 -480 Descending Chicago Center
05:53PM 42.2483 -88.4219 165° South 285 328 8,200 -900 Descending Chicago Center
05:54PM 42.1739 -88.3911 163° South 282 325 7,200 -1,080 Descending Chicago Center
05:55PM 42.0975 -88.3261 148° Southeast 273 314 6,000 -1,080 Descending Chicago Center
05:56PM 42.0389 -88.2700 145° Southeast 265 305 5,000 -960 Descending Chicago Center
05:57PM 41.9919 -88.2239 144° Southeast 221 254 4,100 -540 Descending Chicago Center
05:58PM 41.9678 -88.1558 116° Southeast 212 244 4,000 -600 Descending Chicago Center
05:59PM 41.9667 -88.0833 91° East 184 212 2,900 -1,140 Descending Chicago TRACON